Карточка аэропорта URML

Внимание!
Информация на этой странице в стадии наполнения.
Если вы не увидели какой-то информации, или заметили неточность - пожалуйста сообщите нам!
Спасибо!
Команда RU-STAFF
Название аэропортаУйташ
Название аэропорта (англ.)Uytash
Превышение15 ft. (4.6 m.)
Координаты42°49.002', 47°39.198'
Высота перехода10000 ft
Эшелон переходаFL110 (QNH >= 1013); FL120 (QNH 977-1012); FL130 (QNH < 977)
Коды ответчика2440-2447
Зона ОрВДРостов-на-Дону РПИ (URRV)
Данные METARURML 160500Z 10003MPS 070V150 9999 NSC 30/14 Q1010 R32/01//70 NOSIG RMK QFE757/1009
Проноз погоды (TAF)URML 160200Z 1603/1612 VRB01MPS 9999 NSC BECMG 1605/1607 11005G10MPS
NOTAMshow/hide NOTAM
AWOS   TABLE

Информация о ВПП

ВПП Длина ВПП (м.) Покрытие Курс ВПП Частота ILS
142640Цементобетон142108.3
322640Цементобетон322109.9

Диспетчерские позиции

Позывной Наименование органа УВД Частота
URML_APPМахачкала-Подход119.7
URML_TWRМахачкала-Старт/Посадка121.3



Спутниковое изображение